Time;durP1;ratioP1;P1;durP2;ratioP2;P2;SDS_P1;SDS_P2;PMS_P1;PMS_P2;Temp;Humidity;BMP_temperature;BMP_pressure;BME280_temperature;BME280_humidity;BME280_pressure;Samples;Min_cycle;Max_cycle;Signal;HPM_P1;HPM_P2
2021/08/11 00:51:52;;;;;;;;;1.00;1.00;;;;;;;;5903549;23;8877;-80
2021/08/11 00:54:20;;;;;;;;;3.00;2.00;;;;;;;;4963796;28;8899;-80
2021/08/11 00:56:51;;;;;;;;;2.00;2.00;;;;;;;;4965901;28;8994;-82
2021/08/11 00:59:20;;;;;;;;;0.40;0.40;;;;;;;;4963641;28;8910;-80
2021/08/11 01:01:49;;;;;;;;;1.00;1.00;;;;;;;;4964727;28;8809;-80
2021/08/11 01:04:18;;;;;;;;;1.20;1.20;;;;;;;;4964236;28;8882;-83
2021/08/11 01:06:45;;;;;;;;;0.80;0.80;;;;;;;;4965834;28;8893;-81
2021/08/11 01:09:16;;;;;;;;;1.00;1.00;;;;;;;;4965452;28;8906;-80
2021/08/11 01:11:45;;;;;;;;;3.00;1.40;;;;;;;;4965167;28;8890;-80
2021/08/11 01:14:14;;;;;;;;;2.00;2.00;;;;;;;;4966556;28;8852;-81
2021/08/11 01:16:41;;;;;;;;;0.20;0.20;;;;;;;;4964980;28;8908;-83
2021/08/11 01:19:08;;;;;;;;;1.00;1.00;;;;;;;;4965390;28;9667;-80
2021/08/11 01:21:46;;;;;;;;;0.20;0.20;;;;;;;;4963079;28;8916;-82
2021/08/11 01:24:20;;;;;;;;;1.00;1.00;;;;;;;;4965562;28;9011;-83
2021/08/11 01:27:13;;;;;;;;;1.00;1.00;;;;;;;;4964303;28;8878;-82
2021/08/11 01:29:54;;;;;;;;;1.00;1.00;;;;;;;;4945836;28;8928;-82
2021/08/11 01:32:31;;;;;;;;;0.00;0.00;;;;;;;;4964804;28;8801;-80
2021/08/11 01:48:43;;;;;;;;;0.00;0.00;;;;;;;;4926443;29;8836;-81
2021/08/11 01:51:11;;;;;;;;;0.00;0.00;;;;;;;;4966026;28;9043;-82
2021/08/11 01:53:38;;;;;;;;;0.00;0.00;;;;;;;;4982905;28;8902;-80
2021/08/11 01:56:06;;;;;;;;;0.00;0.00;;;;;;;;4983909;28;8898;-80
2021/08/11 01:58:33;;;;;;;;;1.00;0.00;;;;;;;;4985584;28;8886;-80
2021/08/11 02:01:05;;;;;;;;;0.00;0.00;;;;;;;;4970227;28;8943;-82
2021/08/11 02:03:33;;;;;;;;;0.00;0.00;;;;;;;;4985152;28;8884;-80
2021/08/11 02:06:03;;;;;;;;;0.20;0.20;;;;;;;;4984825;28;8838;-80
2021/08/11 02:08:31;;;;;;;;;0.60;0.60;;;;;;;;4984459;28;8903;-82
2021/08/11 02:11:00;;;;;;;;;0.00;0.00;;;;;;;;4967749;28;8909;-81
2021/08/11 02:13:28;;;;;;;;;0.80;0.80;;;;;;;;4983987;28;8892;-81
2021/08/11 02:15:55;;;;;;;;;0.00;0.00;;;;;;;;4985155;28;8863;-80
2021/08/11 02:18:23;;;;;;;;;0.00;0.00;;;;;;;;4983918;28;8996;-82
2021/08/11 02:20:51;;;;;;;;;0.00;0.00;;;;;;;;4967843;28;8952;-81
2021/08/11 02:23:19;;;;;;;;;1.60;0.00;;;;;;;;4984593;28;8873;-81
2021/08/11 02:25:50;;;;;;;;;0.00;0.00;;;;;;;;4987681;28;9016;-80
2021/08/11 02:28:23;;;;;;;;;0.00;0.00;;;;;;;;4988405;28;8888;-80
2021/08/11 02:30:57;;;;;;;;;1.00;1.00;;;;;;;;4986690;28;9598;-80
2021/08/11 02:33:27;;;;;;;;;0.00;0.00;;;;;;;;4955733;28;8892;-79
2021/08/11 02:35:57;;;;;;;;;0.00;0.00;;;;;;;;4987571;28;8864;-83
2021/08/11 02:38:30;;;;;;;;;0.80;0.80;;;;;;;;4988369;28;8932;-81
2021/08/11 02:41:06;;;;;;;;;0.00;0.00;;;;;;;;4988301;28;8876;-80
2021/08/11 02:43:36;;;;;;;;;0.00;0.00;;;;;;;;4969911;28;8859;-80
2021/08/11 02:46:08;;;;;;;;;0.00;0.00;;;;;;;;4987807;28;8965;-80
2021/08/11 02:48:36;;;;;;;;;1.00;0.00;;;;;;;;4987623;28;8854;-81
2021/08/11 02:51:15;;;;;;;;;;;;;;;;;;;;;
2021/08/11 03:13:09;;;;;;;;;0.00;0.00;;;;;;;;4988803;23;8854;-80
2021/08/11 03:15:38;;;;;;;;;0.80;0.00;;;;;;;;4986308;28;8882;-81
2021/08/11 03:18:05;;;;;;;;;0.00;0.00;;;;;;;;4987001;28;8968;-80
2021/08/11 03:20:32;;;;;;;;;0.40;0.40;;;;;;;;4987056;28;8846;-81
2021/08/11 03:23:00;;;;;;;;;0.00;0.00;;;;;;;;4987339;28;8901;-80
2021/08/11 03:25:27;;;;;;;;;0.00;0.00;;;;;;;;4987589;28;8876;-80
2021/08/11 03:27:54;;;;;;;;;0.00;0.00;;;;;;;;4986347;28;8895;-81
2021/08/11 03:30:23;;;;;;;;;0.00;0.00;;;;;;;;4986629;28;8894;-81
2021/08/11 03:32:50;;;;;;;;;0.00;0.00;;;;;;;;4986515;28;8997;-80
2021/08/11 03:35:18;;;;;;;;;0.00;0.00;;;;;;;;4986584;28;9734;-80
2021/08/11 03:37:46;;;;;;;;;0.00;0.00;;;;;;;;4985519;28;8870;-80
2021/08/11 03:54:07;;;;;;;;;0.00;0.00;;;;;;;;4925906;29;8884;-80
2021/08/11 03:56:34;;;;;;;;;0.00;0.00;;;;;;;;4945032;28;8886;-80
2021/08/11 03:59:01;;;;;;;;;0.75;0.75;;;;;;;;4934057;28;8940;-81
2021/08/11 04:01:29;;;;;;;;;0.00;0.00;;;;;;;;4966050;28;8826;-81
2021/08/11 04:03:56;;;;;;;;;0.00;0.00;;;;;;;;4984373;28;9649;-81
2021/08/11 04:06:23;;;;;;;;;1.00;0.00;;;;;;;;4969586;28;8874;-80
2021/08/11 04:08:51;;;;;;;;;0.00;0.00;;;;;;;;4986015;28;8892;-81
2021/08/11 04:18:05;;;;;;;;;0.00;0.00;;;;;;;;4900277;29;9632;-81
2021/08/11 04:20:33;;;;;;;;;0.00;0.00;;;;;;;;4905726;28;8880;-82
2021/08/11 04:23:00;;;;;;;;;0.25;0.00;;;;;;;;4949899;28;8894;-80
2021/08/11 04:25:28;;;;;;;;;0.00;0.00;;;;;;;;4965932;28;8890;-80
2021/08/11 04:27:56;;;;;;;;;0.00;0.00;;;;;;;;4966692;28;8876;-81
2021/08/11 04:30:23;;;;;;;;;0.00;0.00;;;;;;;;4965926;28;8797;-80
2021/08/11 04:32:51;;;;;;;;;0.00;0.00;;;;;;;;4966420;28;8914;-80
2021/08/11 04:35:18;;;;;;;;;0.00;0.00;;;;;;;;4949770;28;8872;-81
2021/08/11 04:37:45;;;;;;;;;0.00;0.00;;;;;;;;4965570;28;8853;-80
2021/08/11 04:40:14;;;;;;;;;0.00;0.00;;;;;;;;4949294;28;8972;-82
2021/08/11 04:42:41;;;;;;;;;0.00;0.00;;;;;;;;4965449;28;9722;-80
2021/08/11 04:45:11;;;;;;;;;0.00;0.00;;;;;;;;4949477;28;8895;-81
2021/08/11 04:47:38;;;;;;;;;0.00;0.00;;;;;;;;4965446;28;8865;-84
2021/08/11 04:50:06;;;;;;;;;0.00;0.00;;;;;;;;4969307;28;9039;-82
2021/08/11 04:52:34;;;;;;;;;0.00;0.00;;;;;;;;4966805;28;8888;-82
2021/08/11 04:55:03;;;;;;;;;1.00;0.25;;;;;;;;4964079;28;8872;-80
2021/08/11 04:57:30;;;;;;;;;0.00;0.00;;;;;;;;4965199;28;8875;-83
2021/08/11 05:17:04;;;;;;;;;0.00;0.00;;;;;;;;4905210;29;8835;-80
2021/08/11 05:19:31;;;;;;;;;0.00;0.00;;;;;;;;4917221;29;8883;-80
2021/08/11 05:21:59;;;;;;;;;0.00;0.00;;;;;;;;4968841;28;8863;-79
2021/08/11 05:24:26;;;;;;;;;0.00;0.00;;;;;;;;4985130;28;8993;-87
2021/08/11 05:26:54;;;;;;;;;0.00;0.00;;;;;;;;4983853;28;8997;-80
2021/08/11 05:29:21;;;;;;;;;0.00;0.00;;;;;;;;4983119;28;8858;-81
2021/08/11 05:31:49;;;;;;;;;0.00;0.00;;;;;;;;4983785;28;8826;-82
2021/08/11 05:34:18;;;;;;;;;0.00;0.00;;;;;;;;4982861;28;8995;-80
2021/08/11 05:36:45;;;;;;;;;0.00;0.00;;;;;;;;4971786;28;8863;-81
2021/08/11 05:39:12;;;;;;;;;0.00;0.00;;;;;;;;4966607;28;9440;-80
2021/08/11 05:41:39;;;;;;;;;0.00;0.00;;;;;;;;4985026;28;8908;-80
2021/08/11 05:44:07;;;;;;;;;0.75;0.75;;;;;;;;4984467;28;9624;-79
2021/08/11 05:46:34;;;;;;;;;0.00;0.00;;;;;;;;4967197;28;8909;-80
2021/08/11 05:49:02;;;;;;;;;1.00;0.00;;;;;;;;4984568;28;8878;-80
2021/08/11 05:51:34;;;;;;;;;0.00;0.00;;;;;;;;4966929;28;9003;-80
2021/08/11 05:54:01;;;;;;;;;0.00;0.00;;;;;;;;4985082;28;8900;-80
2021/08/11 05:56:29;;;;;;;;;1.75;1.75;;;;;;;;4983762;28;8876;-80
2021/08/11 05:58:56;;;;;;;;;3.25;3.25;;;;;;;;4985467;28;8886;-80
2021/08/11 06:01:24;;;;;;;;;2.00;0.25;;;;;;;;4987317;28;8920;-80
2021/08/11 06:03:52;;;;;;;;;0.00;0.00;;;;;;;;4988625;28;8912;-79
2021/08/11 06:06:20;;;;;;;;;0.75;0.75;;;;;;;;4988672;28;9625;-78
2021/08/11 06:08:48;;;;;;;;;0.00;0.00;;;;;;;;4988018;28;8894;-79
2021/08/11 06:11:16;;;;;;;;;0.20;0.20;;;;;;;;4988616;28;8969;-80
2021/08/11 06:13:43;;;;;;;;;0.40;0.00;;;;;;;;4987587;28;8918;-80
2021/08/11 06:16:10;;;;;;;;;0.80;0.80;;;;;;;;4988730;28;8883;-80
2021/08/11 06:18:38;;;;;;;;;1.00;1.00;;;;;;;;4987396;28;8884;-80
2021/08/11 06:21:05;;;;;;;;;1.00;1.00;;;;;;;;4970988;28;8937;-80
2021/08/11 06:23:32;;;;;;;;;0.60;0.60;;;;;;;;4988403;28;8870;-80
2021/08/11 06:26:01;;;;;;;;;0.00;0.00;;;;;;;;4987594;28;8901;-82
2021/08/11 06:28:28;;;;;;;;;0.00;0.00;;;;;;;;4983229;28;8891;-80
2021/08/11 06:30:55;;;;;;;;;0.40;0.40;;;;;;;;4978716;28;8831;-80
2021/08/11 06:33:22;;;;;;;;;1.00;1.00;;;;;;;;4988388;28;8888;-80
2021/08/11 06:35:50;;;;;;;;;0.00;0.00;;;;;;;;4987106;28;8914;-80
2021/08/11 06:38:18;;;;;;;;;0.00;0.00;;;;;;;;4970272;28;9632;-81
2021/08/11 06:40:45;;;;;;;;;0.80;0.80;;;;;;;;4987446;28;8871;-79
2021/08/11 06:43:14;;;;;;;;;1.00;1.00;;;;;;;;4987119;28;8993;-80
2021/08/11 07:52:24;;;;;;;;;1.00;1.00;;;;;;;;4981777;28;10008;-81
2021/08/11 07:54:51;;;;;;;;;0.80;0.80;;;;;;;;4986074;28;8935;-84
2021/08/11 07:57:18;;;;;;;;;1.20;1.20;;;;;;;;4987684;28;8888;-84
2021/08/11 07:59:45;;;;;;;;;1.40;1.40;;;;;;;;4986272;28;8993;-87
2021/08/11 08:02:13;;;;;;;;;0.60;0.60;;;;;;;;4969522;28;8821;-86
2021/08/11 08:04:41;;;;;;;;;2.40;2.00;;;;;;;;4970321;28;8879;-84
2021/08/11 08:07:09;;;;;;;;;1.20;1.20;;;;;;;;4986257;28;8960;-85
2021/08/11 08:09:38;;;;;;;;;1.00;1.00;;;;;;;;4986909;28;8890;-84
2021/08/11 08:12:06;;;;;;;;;1.00;1.00;;;;;;;;4986142;28;9687;-87
2021/08/11 08:14:36;;;;;;;;;1.00;1.00;;;;;;;;4969970;28;8946;-86
2021/08/11 08:17:04;;;;;;;;;1.40;1.40;;;;;;;;4984535;28;8897;-85
2021/08/11 08:19:31;;;;;;;;;1.00;1.00;;;;;;;;4986974;28;8873;-84
2021/08/11 08:21:58;;;;;;;;;2.00;2.00;;;;;;;;4986364;28;9111;-83
2021/08/11 08:27:11;;;;;;;;;1.00;1.00;;;;;;;;4955360;28;9011;-84
2021/08/11 08:29:38;;;;;;;;;1.00;1.00;;;;;;;;4985537;28;8896;-84
2021/08/11 08:32:07;;;;;;;;;1.20;1.20;;;;;;;;4986181;28;8836;-85
2021/08/11 08:34:34;;;;;;;;;2.80;2.80;;;;;;;;4967644;28;8864;-83
2021/08/11 08:37:01;;;;;;;;;2.20;1.00;;;;;;;;4985764;28;8893;-84
2021/08/11 08:39:29;;;;;;;;;2.80;2.80;;;;;;;;4984215;28;8908;-84
2021/08/11 08:41:56;;;;;;;;;1.00;1.00;;;;;;;;4985681;28;8874;-81
2021/08/11 08:44:25;;;;;;;;;2.00;2.00;;;;;;;;4967921;28;8888;-86
2021/08/11 08:46:53;;;;;;;;;2.80;2.80;;;;;;;;4985318;28;9010;-82
2021/08/11 08:49:21;;;;;;;;;2.40;2.40;;;;;;;;4986642;28;8943;-84
2021/08/11 08:51:49;;;;;;;;;5.00;3.00;;;;;;;;4984982;28;8896;-84
2021/08/11 08:54:20;;;;;;;;;1.80;1.80;;;;;;;;4969241;28;8875;-84
2021/08/11 08:56:48;;;;;;;;;2.40;2.40;;;;;;;;4985567;28;8881;-82
2021/08/11 08:59:16;;;;;;;;;1.00;1.00;;;;;;;;4968222;28;8882;-83
2021/08/11 09:01:45;;;;;;;;;4.00;4.00;;;;;;;;4985320;28;8815;-85
2021/08/11 09:04:12;;;;;;;;;1.80;1.80;;;;;;;;4984217;28;8928;-83
2021/08/11 09:06:39;;;;;;;;;2.60;2.60;;;;;;;;4985984;28;8862;-84
2021/08/11 09:09:08;;;;;;;;;3.00;2.00;;;;;;;;4984525;28;8908;-84
2021/08/11 09:11:37;;;;;;;;;2.00;2.00;;;;;;;;4986248;28;8948;-82
2021/08/11 09:14:20;;;;;;;;;3.00;3.00;;;;;;;;4985320;28;8872;-83
2021/08/11 09:16:50;;;;;;;;;4.80;4.00;;;;;;;;4968321;28;8889;-83
2021/08/11 09:19:17;;;;;;;;;3.00;3.00;;;;;;;;4985561;28;8872;-81
2021/08/11 09:22:02;;;;;;;;;5.00;3.60;;;;;;;;4971523;28;8944;-83
2021/08/11 09:24:32;;;;;;;;;2.00;2.00;;;;;;;;4985241;28;8904;-80
2021/08/11 09:27:20;;;;;;;;;3.60;1.80;;;;;;;;4984581;28;8866;-82
2021/08/11 09:30:06;;;;;;;;;2.00;2.00;;;;;;;;4984938;28;9500;-80
2021/08/11 09:32:48;;;;;;;;;3.80;3.80;;;;;;;;4985219;28;8813;-82
2021/08/11 09:35:16;;;;;;;;;4.00;4.00;;;;;;;;4971425;28;8921;-82
2021/08/11 09:37:44;;;;;;;;;3.00;3.00;;;;;;;;4985381;28;8883;-79
2021/08/11 09:40:17;;;;;;;;;3.20;2.80;;;;;;;;4984410;28;8971;-82
2021/08/11 09:42:45;;;;;;;;;4.00;4.00;;;;;;;;4985477;28;8939;-82
2021/08/11 09:45:13;;;;;;;;;4.20;3.60;;;;;;;;4985184;28;9000;-80
2021/08/11 09:48:00;;;;;;;;;3.00;3.00;;;;;;;;4984498;28;8884;-82
2021/08/11 09:50:46;;;;;;;;;3.00;2.60;;;;;;;;4984898;28;8894;-83
2021/08/11 09:53:15;;;;;;;;;1.80;1.80;;;;;;;;4964529;28;8896;-82
2021/08/11 09:56:00;;;;;;;;;5.40;3.80;;;;;;;;4964230;28;8897;-82
2021/08/11 09:58:28;;;;;;;;;4.80;4.80;;;;;;;;4956524;28;8870;-81
2021/08/11 10:00:55;;;;;;;;;4.00;4.00;;;;;;;;4944582;28;8831;-81
2021/08/11 10:03:24;;;;;;;;;4.20;3.00;;;;;;;;4946389;28;8894;-82
2021/08/11 10:05:52;;;;;;;;;8.40;8.00;;;;;;;;4944675;28;8898;-82
2021/08/11 10:08:34;;;;;;;;;4.80;3.40;;;;;;;;4956492;28;9843;-81
2021/08/11 10:11:01;;;;;;;;;4.20;4.20;;;;;;;;4963509;28;8872;-82
2021/08/11 10:13:30;;;;;;;;;4.00;4.00;;;;;;;;4965377;28;8896;-82
2021/08/11 10:15:57;;;;;;;;;4.00;4.00;;;;;;;;4946740;28;8898;-80
2021/08/11 10:18:27;;;;;;;;;4.40;4.40;;;;;;;;4958896;28;9526;-82
2021/08/11 10:20:57;;;;;;;;;4.60;4.60;;;;;;;;4956322;28;8877;-82
2021/08/11 10:23:25;;;;;;;;;4.40;4.40;;;;;;;;4948558;28;9692;-81
2021/08/11 10:25:52;;;;;;;;;4.00;4.00;;;;;;;;4955172;28;8909;-81
2021/08/11 10:28:24;;;;;;;;;3.40;3.40;;;;;;;;4960789;28;8922;-81
2021/08/11 10:30:53;;;;;;;;;4.20;4.20;;;;;;;;4963735;28;8816;-82
2021/08/11 10:33:21;;;;;;;;;3.00;3.00;;;;;;;;4965928;28;8871;-81
2021/08/11 10:35:52;;;;;;;;;3.40;3.40;;;;;;;;4964763;28;8884;-81
2021/08/11 10:38:29;;;;;;;;;3.00;3.00;;;;;;;;4952803;28;9029;-80
2021/08/11 10:40:56;;;;;;;;;4.00;2.80;;;;;;;;4945186;29;8933;-81
2021/08/11 10:43:24;;;;;;;;;7.00;5.40;;;;;;;;4946812;29;8886;-81
2021/08/11 10:45:58;;;;;;;;;3.80;3.80;;;;;;;;4944696;28;8898;-83
2021/08/11 10:48:26;;;;;;;;;1.60;1.60;;;;;;;;4960208;28;8874;-81
2021/08/11 10:51:08;;;;;;;;;4.00;4.00;;;;;;;;4954362;28;8905;-83
2021/08/11 10:53:35;;;;;;;;;3.60;3.60;;;;;;;;4970363;28;9619;-81
2021/08/11 10:56:02;;;;;;;;;4.60;2.80;;;;;;;;4991539;28;8922;-82
2021/08/11 10:58:40;;;;;;;;;3.80;3.80;;;;;;;;4991073;28;8907;-81
2021/08/11 11:01:33;;;;;;;;;3.80;3.80;;;;;;;;4970226;28;8846;-81
2021/08/11 11:04:01;;;;;;;;;3.40;3.40;;;;;;;;4988475;28;8876;-80
2021/08/11 11:06:52;;;;;;;;;5.40;5.40;;;;;;;;4986410;28;8873;-81
2021/08/11 11:09:21;;;;;;;;;3.80;3.80;;;;;;;;4987793;28;8908;-83
2021/08/11 11:11:48;;;;;;;;;4.20;4.20;;;;;;;;4987042;28;8891;-83
2021/08/11 11:14:44;;;;;;;;;3.40;3.40;;;;;;;;4970425;28;8884;-81
2021/08/11 11:17:14;;;;;;;;;4.80;4.80;;;;;;;;4987755;28;8996;-82
2021/08/11 11:20:25;;;;;;;;;5.80;5.80;;;;;;;;4986904;28;8860;-81
2021/08/11 11:23:02;;;;;;;;;3.20;3.20;;;;;;;;4980195;28;8919;-81
2021/08/11 11:26:00;;;;;;;;;4.20;4.20;;;;;;;;4987542;28;8892;-81
2021/08/11 11:29:09;;;;;;;;;3.40;3.40;;;;;;;;4980501;28;8911;-82
2021/08/11 11:31:47;;;;;;;;;4.20;4.20;;;;;;;;4986189;28;8819;-81
2021/08/11 11:34:35;;;;;;;;;2.60;2.60;;;;;;;;4987188;28;8964;-81
2021/08/11 11:37:22;;;;;;;;;3.60;3.60;;;;;;;;4986040;28;8873;-81
2021/08/11 11:40:06;;;;;;;;;2.80;2.80;;;;;;;;4987100;28;9623;-82
2021/08/11 11:42:33;;;;;;;;;3.60;3.60;;;;;;;;4969403;28;10056;-80
2021/08/11 11:45:01;;;;;;;;;4.00;4.00;;;;;;;;4986461;28;9007;-81
2021/08/11 11:48:17;;;;;;;;;3.80;3.80;;;;;;;;4986599;28;9012;-80
2021/08/11 11:50:49;;;;;;;;;4.20;4.20;;;;;;;;4984945;28;8886;-81
2021/08/11 11:53:30;;;;;;;;;3.00;3.00;;;;;;;;4986629;28;8877;-81
2021/08/11 11:56:09;;;;;;;;;3.40;3.40;;;;;;;;4953030;28;8903;-82
2021/08/11 11:58:48;;;;;;;;;4.80;4.80;;;;;;;;4984254;28;8907;-82
2021/08/11 12:01:16;;;;;;;;;3.00;3.00;;;;;;;;4955916;28;8822;-81
2021/08/11 12:03:47;;;;;;;;;3.60;3.60;;;;;;;;4985287;28;8902;-81
2021/08/11 12:06:15;;;;;;;;;4.60;4.60;;;;;;;;4986524;28;8893;-82
2021/08/11 12:08:42;;;;;;;;;4.00;4.00;;;;;;;;4985886;28;8866;-82
2021/08/11 12:11:13;;;;;;;;;3.00;3.00;;;;;;;;4985649;28;8896;-81
2021/08/11 12:13:47;;;;;;;;;3.00;3.00;;;;;;;;4986805;28;8883;-82
2021/08/11 12:16:16;;;;;;;;;4.00;4.00;;;;;;;;4967578;28;8916;-81
2021/08/11 12:18:47;;;;;;;;;4.80;4.80;;;;;;;;4986379;28;8853;-83
2021/08/11 12:21:16;;;;;;;;;6.20;6.20;;;;;;;;4985301;28;8879;-83
2021/08/11 12:23:43;;;;;;;;;3.20;3.20;;;;;;;;4995392;23;8882;-83
2021/08/11 12:26:14;;;;;;;;;3.00;3.00;;;;;;;;4985648;28;8869;-82
2021/08/11 12:28:47;;;;;;;;;2.80;2.80;;;;;;;;4986072;28;8853;-82
2021/08/11 12:31:17;;;;;;;;;3.00;3.00;;;;;;;;4983716;28;8844;-82
2021/08/11 12:33:46;;;;;;;;;4.20;4.20;;;;;;;;4986153;28;8900;-82
2021/08/11 12:36:18;;;;;;;;;3.20;3.20;;;;;;;;4984380;28;8888;-82
2021/08/11 12:39:02;;;;;;;;;5.00;5.00;;;;;;;;4978604;28;8885;-83
2021/08/11 12:51:24;;;;;;;;;3.60;3.60;;;;;;;;4945545;28;8850;-83
2021/08/11 12:54:04;;;;;;;;;4.40;4.40;;;;;;;;4943374;28;8889;-84
2021/08/11 12:56:31;;;;;;;;;3.80;3.80;;;;;;;;4971374;28;8889;-84
2021/08/11 12:59:03;;;;;;;;;4.00;4.00;;;;;;;;4964933;28;8888;-83
2021/08/11 13:01:31;;;;;;;;;3.40;3.40;;;;;;;;4975331;28;8871;-83
2021/08/11 13:03:59;;;;;;;;;3.00;3.00;;;;;;;;4985708;28;8888;-82
2021/08/11 13:06:43;;;;;;;;;3.00;3.00;;;;;;;;4984683;28;8917;-83
2021/08/11 13:09:25;;;;;;;;;4.00;4.00;;;;;;;;4985205;28;9634;-84
2021/08/11 13:11:55;;;;;;;;;4.60;3.00;;;;;;;;4984400;28;8877;-82
2021/08/11 13:14:47;;;;;;;;;3.00;3.00;;;;;;;;4985347;28;8873;-84
2021/08/11 13:17:16;;;;;;;;;2.80;2.80;;;;;;;;4984934;28;8867;-84
2021/08/11 13:19:43;;;;;;;;;2.20;2.20;;;;;;;;4983874;28;9013;-81
2021/08/11 13:22:20;;;;;;;;;2.80;2.80;;;;;;;;4972804;28;8885;-82
2021/08/11 13:24:48;;;;;;;;;4.80;4.80;;;;;;;;4984058;28;8880;-82
2021/08/11 13:27:15;;;;;;;;;3.80;3.80;;;;;;;;4985391;28;8958;-81
2021/08/11 13:29:43;;;;;;;;;4.20;4.20;;;;;;;;4984423;28;8883;-82
2021/08/11 13:32:12;;;;;;;;;2.60;2.60;;;;;;;;4983749;28;8838;-81
2021/08/11 13:34:39;;;;;;;;;4.20;4.20;;;;;;;;4985112;28;8991;-82
2021/08/11 13:37:07;;;;;;;;;3.00;3.00;;;;;;;;4984180;28;8888;-80
2021/08/11 13:59:12;;;;;;;;;4.60;4.60;;;;;;;;4818272;29;9744;-82
2021/08/11 14:01:39;;;;;;;;;3.00;3.00;;;;;;;;4850257;29;8969;-83
2021/08/11 14:04:07;;;;;;;;;2.80;2.00;;;;;;;;4892037;29;8886;-82
2021/08/11 14:06:34;;;;;;;;;3.20;3.20;;;;;;;;4914522;29;8944;-83
2021/08/11 14:09:01;;;;;;;;;3.00;3.00;;;;;;;;4940441;29;8892;-83
2021/08/11 14:11:29;;;;;;;;;4.00;4.00;;;;;;;;4931789;29;8890;-82
2021/08/11 14:13:56;;;;;;;;;3.00;3.00;;;;;;;;4970418;28;8956;-82
2021/08/11 14:16:25;;;;;;;;;5.60;4.00;;;;;;;;4983739;28;8900;-84
2021/08/11 14:18:53;;;;;;;;;4.60;4.60;;;;;;;;4984992;28;8889;-84
2021/08/11 14:21:21;;;;;;;;;4.40;4.40;;;;;;;;4986704;28;8865;-83
2021/08/11 14:23:48;;;;;;;;;3.00;3.00;;;;;;;;4975968;28;8980;-83
2021/08/11 14:26:16;;;;;;;;;5.60;5.60;;;;;;;;4988049;28;8999;-84
2021/08/11 14:28:43;;;;;;;;;3.00;3.00;;;;;;;;4988202;28;8873;-83
2021/08/11 14:31:10;;;;;;;;;4.60;4.60;;;;;;;;4987141;28;8841;-83
2021/08/11 14:33:39;;;;;;;;;3.00;3.00;;;;;;;;4987823;28;8911;-82
2021/08/11 14:36:07;;;;;;;;;3.40;3.40;;;;;;;;4988562;28;8864;-82
2021/08/11 14:38:34;;;;;;;;;4.20;4.00;;;;;;;;4982057;28;8882;-82
2021/08/11 14:41:02;;;;;;;;;3.20;3.20;;;;;;;;4988088;28;8897;-82
2021/08/11 14:43:29;;;;;;;;;2.20;2.20;;;;;;;;4987670;28;8905;-81
2021/08/11 14:45:56;;;;;;;;;2.60;2.60;;;;;;;;4969922;28;9611;-82
2021/08/11 14:48:23;;;;;;;;;3.40;3.40;;;;;;;;4970333;28;8960;-82
2021/08/11 14:50:53;;;;;;;;;3.20;3.20;;;;;;;;4987203;28;8857;-82
2021/08/11 14:53:21;;;;;;;;;3.00;3.00;;;;;;;;4988060;28;8884;-82
2021/08/11 14:55:48;;;;;;;;;3.00;3.00;;;;;;;;4986320;28;8891;-81
2021/08/11 14:58:15;;;;;;;;;4.40;4.40;;;;;;;;4988064;28;8883;-83
2021/08/11 15:00:43;;;;;;;;;4.20;4.20;;;;;;;;4986119;28;9782;-83
2021/08/11 15:03:10;;;;;;;;;2.00;2.00;;;;;;;;4988116;28;8875;-83
2021/08/11 15:05:37;;;;;;;;;3.60;3.60;;;;;;;;4987299;28;8896;-83
2021/08/11 15:08:07;;;;;;;;;2.80;2.80;;;;;;;;4987736;28;8932;-84
2021/08/11 15:10:34;;;;;;;;;3.40;3.40;;;;;;;;4987986;28;8925;-82
2021/08/11 15:13:01;;;;;;;;;2.80;2.80;;;;;;;;4969045;28;8887;-82
2021/08/11 15:15:30;;;;;;;;;3.00;3.00;;;;;;;;4987371;28;8874;-83
2021/08/11 15:17:58;;;;;;;;;3.20;3.20;;;;;;;;4987461;28;8865;-83
2021/08/11 15:20:27;;;;;;;;;4.00;4.00;;;;;;;;4970564;28;9650;-84
2021/08/11 15:22:55;;;;;;;;;4.40;4.40;;;;;;;;4987691;28;9627;-84
2021/08/11 15:25:24;;;;;;;;;3.00;3.00;;;;;;;;4969309;28;8998;-83
2021/08/11 15:27:52;;;;;;;;;6.00;3.40;;;;;;;;4987122;28;9662;-84
2021/08/11 15:30:20;;;;;;;;;2.80;2.80;;;;;;;;4984463;28;8888;-83
2021/08/11 15:32:48;;;;;;;;;2.20;2.20;;;;;;;;4986701;28;8866;-83
2021/08/11 15:35:15;;;;;;;;;3.80;3.80;;;;;;;;4969594;28;8900;-84
2021/08/11 15:37:43;;;;;;;;;3.80;3.80;;;;;;;;4969462;28;8854;-82
2021/08/11 15:40:13;;;;;;;;;4.80;4.00;;;;;;;;4968202;28;8997;-84
2021/08/11 15:46:14;;;;;;;;;3.00;3.00;;;;;;;;4987210;28;8979;-83
2021/08/11 15:48:41;;;;;;;;;2.80;2.80;;;;;;;;4986189;28;9070;-84
2021/08/11 15:51:08;;;;;;;;;4.00;4.00;;;;;;;;4987283;28;8994;-84
2021/08/11 15:53:35;;;;;;;;;2.40;2.40;;;;;;;;4985940;28;8992;-84
2021/08/11 15:56:03;;;;;;;;;3.40;1.80;;;;;;;;4986151;28;8989;-83
2021/08/11 15:58:31;;;;;;;;;3.60;3.60;;;;;;;;4986898;28;8969;-84
2021/08/11 16:00:58;;;;;;;;;3.60;3.60;;;;;;;;4985079;28;9748;-82
2021/08/11 16:03:27;;;;;;;;;2.80;2.80;;;;;;;;4986700;28;9000;-84
2021/08/11 16:05:54;;;;;;;;;2.80;2.80;;;;;;;;4951611;28;8933;-82
2021/08/11 16:08:21;;;;;;;;;3.60;3.60;;;;;;;;4986541;28;8872;-82
2021/08/11 16:10:48;;;;;;;;;5.00;3.20;;;;;;;;4985771;28;8875;-82
2021/08/11 16:13:16;;;;;;;;;2.80;2.80;;;;;;;;4986171;28;8873;-83
2021/08/11 16:15:43;;;;;;;;;1.00;1.00;;;;;;;;4986085;28;8892;-82
2021/08/11 16:18:10;;;;;;;;;3.80;3.80;;;;;;;;4968000;28;8879;-82
2021/08/11 16:20:39;;;;;;;;;2.60;2.60;;;;;;;;4986885;28;9658;-83
2021/08/11 16:23:06;;;;;;;;;4.00;4.00;;;;;;;;4985516;28;8886;-82
2021/08/11 16:25:35;;;;;;;;;2.00;2.00;;;;;;;;4986378;28;8873;-83
2021/08/11 16:28:02;;;;;;;;;2.80;2.80;;;;;;;;4984405;28;9011;-82
2021/08/11 16:30:29;;;;;;;;;2.80;2.80;;;;;;;;4985884;28;8801;-82
2021/08/11 16:42:27;;;;;;;;;1.40;1.40;;;;;;;;4927060;29;8838;-82
2021/08/11 16:44:54;;;;;;;;;3.00;3.00;;;;;;;;4953395;28;8901;-82
2021/08/11 16:47:21;;;;;;;;;3.00;3.00;;;;;;;;4986205;28;8887;-82
2021/08/11 16:49:48;;;;;;;;;3.20;2.00;;;;;;;;4970700;28;8879;-80
2021/08/11 16:52:16;;;;;;;;;3.60;3.60;;;;;;;;4989075;28;9694;-80
2021/08/11 16:54:43;;;;;;;;;2.60;2.60;;;;;;;;4987877;28;8875;-81
2021/08/11 16:57:10;;;;;;;;;3.00;3.00;;;;;;;;4985212;28;8885;-81
2021/08/11 16:59:39;;;;;;;;;3.40;3.40;;;;;;;;4985830;28;8878;-82
2021/08/11 17:02:06;;;;;;;;;3.00;3.00;;;;;;;;4984152;28;8847;-82
2021/08/11 17:04:34;;;;;;;;;2.40;2.40;;;;;;;;4985782;28;8881;-82
2021/08/11 17:07:01;;;;;;;;;3.60;3.60;;;;;;;;4982221;28;8889;-81
2021/08/11 17:09:29;;;;;;;;;2.00;2.00;;;;;;;;4957931;28;8899;-83
2021/08/11 17:11:56;;;;;;;;;2.00;2.00;;;;;;;;4984313;28;8934;-82
2021/08/11 17:14:34;;;;;;;;;;;;;;;;;;;;;
2021/08/11 17:27:41;;;;;;;;;4.00;4.00;;;;;;;;4958236;28;8997;-82
2021/08/11 17:36:52;;;;;;;;;3.60;3.60;;;;;;;;4963608;28;8825;-82
2021/08/11 17:39:20;;;;;;;;;2.00;2.00;;;;;;;;4966437;28;8922;-82
2021/08/11 17:41:48;;;;;;;;;3.60;3.60;;;;;;;;4983804;28;8883;-82
2021/08/11 17:44:15;;;;;;;;;4.60;4.60;;;;;;;;4967806;28;10238;-82
2021/08/11 17:46:42;;;;;;;;;5.40;3.40;;;;;;;;4983530;28;9694;-82
2021/08/11 17:49:09;;;;;;;;;4.00;4.00;;;;;;;;4984596;28;8880;-82
2021/08/11 17:51:37;;;;;;;;;3.20;3.20;;;;;;;;4985070;28;8884;-82
2021/08/11 17:54:04;;;;;;;;;5.40;3.80;;;;;;;;4984429;28;8988;-82
2021/08/11 17:56:33;;;;;;;;;3.80;3.80;;;;;;;;4991011;28;8955;-82
2021/08/11 17:59:00;;;;;;;;;4.80;4.80;;;;;;;;4972381;28;9008;-82
2021/08/11 18:01:27;;;;;;;;;4.00;4.00;;;;;;;;4990546;28;8828;-83
2021/08/11 18:03:55;;;;;;;;;5.00;4.00;;;;;;;;4972425;28;8946;-82
2021/08/11 18:06:23;;;;;;;;;4.20;3.60;;;;;;;;4991296;28;8902;-82
2021/08/11 18:08:50;;;;;;;;;3.80;3.80;;;;;;;;4973068;28;8906;-82
2021/08/11 18:11:17;;;;;;;;;4.00;4.00;;;;;;;;4991184;28;8935;-82
2021/08/11 18:13:46;;;;;;;;;3.40;3.40;;;;;;;;4991097;28;8896;-82
2021/08/11 18:16:14;;;;;;;;;3.60;3.60;;;;;;;;4978982;28;9674;-82
2021/08/11 18:18:41;;;;;;;;;4.20;4.20;;;;;;;;4988901;28;8906;-82
2021/08/11 18:21:08;;;;;;;;;3.80;3.80;;;;;;;;4990316;28;8850;-81
2021/08/11 18:23:37;;;;;;;;;3.00;3.00;;;;;;;;4974242;28;9015;-82
2021/08/11 18:26:04;;;;;;;;;4.20;3.60;;;;;;;;4990342;28;8910;-82
2021/08/11 18:28:32;;;;;;;;;3.20;3.20;;;;;;;;4989962;28;9724;-83
2021/08/11 18:31:00;;;;;;;;;3.80;3.80;;;;;;;;4989270;28;8795;-82
2021/08/11 18:33:28;;;;;;;;;4.00;4.00;;;;;;;;4988867;28;8891;-83
2021/08/11 18:42:03;;;;;;;;;4.60;4.60;;;;;;;;4873139;28;8876;-82
2021/08/11 18:44:30;;;;;;;;;5.00;5.00;;;;;;;;4975484;28;8977;-82
2021/08/11 18:47:00;;;;;;;;;3.60;3.60;;;;;;;;4989576;28;8883;-81
2021/08/11 18:49:27;;;;;;;;;3.60;3.60;;;;;;;;4990485;28;8905;-81
2021/08/11 18:51:56;;;;;;;;;4.00;4.00;;;;;;;;4977341;28;8881;-83
2021/08/11 18:54:24;;;;;;;;;3.80;3.80;;;;;;;;4972844;28;8864;-82
2021/08/11 18:56:52;;;;;;;;;5.60;5.60;;;;;;;;4983172;28;8929;-82
2021/08/11 18:59:19;;;;;;;;;4.80;4.80;;;;;;;;4974204;28;8911;-82
2021/08/11 19:01:47;;;;;;;;;5.80;5.80;;;;;;;;4970193;28;8955;-82
2021/08/11 19:31:47;;;;;;;;;7.60;4.80;;;;;;;;4902140;29;8863;-83
2021/08/11 19:34:14;;;;;;;;;5.20;4.80;;;;;;;;4907840;29;8929;-82
2021/08/11 19:36:41;;;;;;;;;5.20;5.20;;;;;;;;4936266;28;9771;-83
2021/08/11 19:39:08;;;;;;;;;5.80;5.80;;;;;;;;4975676;28;8877;-83
2021/08/11 19:41:36;;;;;;;;;4.80;4.80;;;;;;;;4986577;28;8911;-83
2021/08/11 19:44:04;;;;;;;;;5.80;4.60;;;;;;;;4984685;28;8982;-84
2021/08/11 19:46:32;;;;;;;;;4.00;4.00;;;;;;;;4986426;28;8855;-83
2021/08/11 20:12:39;;;;;;;;;5.00;5.00;;;;;;;;4977084;28;8964;-84
2021/08/11 20:15:07;;;;;;;;;6.00;6.00;;;;;;;;4985937;28;8851;-83
2021/08/11 20:17:34;;;;;;;;;6.20;5.20;;;;;;;;4986068;28;8882;-83
2021/08/11 20:20:02;;;;;;;;;4.60;4.60;;;;;;;;4986685;28;9636;-83
2021/08/11 20:22:29;;;;;;;;;5.60;5.60;;;;;;;;4968699;28;8961;-82